Flight Track Log - Related Links

Times and Time Zones

All times are in EDT time to prevent confusion due to time zone crossing. See the N357FE flight status page for this flight to view local times or setup timezone preferences in your user account.

Time Position Orientation Groundspeed Altitude Reporting Facility
EDT Latitude Longitude Course Direction KTS MPH feet Rate Location/Type
Wed 04:44:11 PM 35.0167 -89.9667 180° South 157 181 1,000  Level KMEM
Wed 04:45:11 PM 34.9667 -89.9667 180° South 208 239 2,800 2,105 Climbing KMEM
Wed 04:46:05 PM 34.9333 -89.9167 129° Southeast 273 314 5,000 2,765 Climbing KMEM
Wed 04:47:06 PM 34.9500 -89.8167 78° East 295 339 8,100 3,125 Climbing KMEM
Wed 04:47:41 PM 34.9831 -89.7692 50° Northeast 297 342 10,000 2,274 Climbing Memphis Center
Wed 04:48:41 PM 35.0181 -89.6853 63° Northeast 314 361 11,700 1,350 Climbing Memphis Center
Wed 04:49:41 PM 35.0633 -89.5706 64° Northeast 343 395 12,700 1,750 Climbing Memphis Center
Wed 04:50:41 PM 35.1144 -89.4508 62° Northeast 378 435 15,200 2,300 Climbing Memphis Center
Wed 04:51:41 PM 35.1636 -89.3283 64° Northeast 392 451 17,300 2,050 Climbing Memphis Center
Wed 04:52:41 PM 35.2208 -89.1903 63° Northeast 404 465 19,300 1,850 Climbing Memphis Center
Wed 04:53:41 PM 35.2739 -89.0650 63° Northeast 403 464 21,000 1,587 Climbing Memphis Center
Wed 04:54:42 PM 35.3350 -88.9344 60° Northeast 423 487 22,500 1,450 Climbing Memphis Center
Wed 04:55:41 PM 35.3961 -88.8033 60° Northeast 434 499 23,900 1,156 Climbing Memphis Center
Wed 05:01:32 PM 35.7960 -87.9950 60° Northeast 500 575 30,400 1,076 Climbing FlightAware ADS-B
Wed 05:02:17 PM 35.8690 -87.8970 47° Northeast 506 582 31,000 776 Climbing FlightAware ADS-B
Wed 05:02:57 PM 35.9310 -87.8140 47° Northeast 510 587 31,500 1,050 Climbing FlightAware ADS-B
Wed 05:03:37 PM 35.9960 -87.7260 48° Northeast 504 580 32,400 988 Climbing FlightAware ADS-B
Wed 05:04:22 PM 36.0660 -87.6320 47° Northeast 508 585 32,900 776 Climbing FlightAware ADS-B
Wed 05:05:02 PM 36.1300 -87.5470 47° Northeast 508 585 33,500 988 Climbing FlightAware ADS-B
Wed 05:05:47 PM 36.2020 -87.4480 48° Northeast 505 581 34,300 1,059 Climbing FlightAware ADS-B
Wed 05:06:27 PM 36.2650 -87.3630 47° Northeast 499 574 35,000 525 Climbing FlightAware ADS-B
Wed 05:07:07 PM 36.3270 -87.2780 48° Northeast 500 575 35,000  Level FlightAware ADS-B
Wed 05:07:52 PM 36.3940 -87.1840 48° Northeast 498 573 35,000  Level FlightAware ADS-B
Wed 05:08:32 PM 36.4570 -87.0990 47° Northeast 498 573 35,000  Level FlightAware ADS-B
Wed 05:09:17 PM 36.5280 -87.0010 48° Northeast 499 574 35,000  Level FlightAware ADS-B
Wed 05:09:57 PM 36.5890 -86.9160 48° Northeast 494 568 35,000  Level FlightAware ADS-B
Wed 05:10:37 PM 36.6510 -86.8320 47° Northeast 492 566 35,000  Level FlightAware ADS-B
Wed 05:11:22 PM 36.7170 -86.7390 48° Northeast 493 567 35,000  Level FlightAware ADS-B
Wed 05:11:59 PM 36.7770 -86.6564 48° Northeast 491 565 35,000  Level FlightAware ADS-B
Wed 05:12:29 PM 36.8222 -86.5917 49° Northeast 483 556 35,000  Level FlightAware ADS-B
Wed 05:13:11 PM 36.8837 -86.5071 48° Northeast 480 552 35,000  Level FlightAware ADS-B
Wed 05:13:34 PM 36.9188 -86.4608 47° Northeast 479 551 35,000  Level FlightAware ADS-B
Wed 05:13:50 PM 36.9470 -86.4331 38° Northeast 478 550 35,000  Level FlightAware ADS-B
Wed 05:13:58 PM 36.9617 -86.4209 34° Northeast 477 549 35,000  Level FlightAware ADS-B
Wed 05:14:31 PM 37.0239 -86.3751 30° Northeast 476 548 35,000  Level FlightAware ADS-B
Wed 05:15:02 PM 37.0829 -86.3318 30° Northeast 473 544 35,000  Level FlightAware ADS-B
Wed 05:16:17 PM 37.2220 -86.2290 30° Northeast 474 545 35,000  Level FlightAware ADS-B
Wed 05:16:57 PM 37.2990 -86.1740 30° Northeast 476 548 35,000  Level FlightAware ADS-B
Wed 05:17:37 PM 37.3740 -86.1200 30° Northeast 478 550 35,000  Level FlightAware ADS-B
Wed 05:18:07 PM 37.4310 -86.0760 32° Northeast 476 548 35,000  Level FlightAware ADS-B
Wed 05:18:47 PM 37.5080 -86.0200 30° Northeast 478 550 35,000  Level FlightAware ADS-B
Wed 05:19:18 PM 37.5707 -85.9749 30° Northeast 481 554 35,000 -257 Level FlightAware ADS-B
Wed 05:19:57 PM 37.6458 -85.9192 30° Northeast 482 555 34,700 -606 Descending FlightAware ADS-B
Wed 05:20:57 PM 37.7580 -85.8360 30° Northeast 479 551 34,000 -720 Descending FlightAware ADS-B
Wed 05:21:37 PM 37.8360 -85.7780 30° Northeast 487 560 33,500 -750 Descending FlightAware ADS-B
Wed 05:22:17 PM 37.9150 -85.7200 30° Northeast 494 568 33,000 -706 Descending FlightAware ADS-B
Wed 05:23:02 PM 38.0010 -85.6540 31° Northeast 498 573 32,500 -706 Descending FlightAware ADS-B
Wed 05:23:42 PM 38.0810 -85.5950 30° Northeast 500 575 32,000 -776 Descending FlightAware ADS-B
Wed 05:24:27 PM 38.1680 -85.5160 36° Northeast 505 581 31,400 -706 Descending FlightAware ADS-B
Wed 05:25:07 PM 38.2430 -85.4450 37° Northeast 503 579 31,000 -282 Descending FlightAware ADS-B
Wed 05:25:52 PM 38.3250 -85.3680 36° Northeast 497 572 31,000  Level FlightAware ADS-B
Wed 05:26:32 PM 38.4000 -85.2960 37° Northeast 497 572 31,000  Level FlightAware ADS-B
Wed 05:27:12 PM 38.4730 -85.2280 36° Northeast 496 571 31,000  Level FlightAware ADS-B
Wed 05:27:57 PM 38.5590 -85.1450 37° Northeast 503 579 31,000  Level FlightAware ADS-B
Wed 05:28:37 PM 38.6320 -85.0750 37° Northeast 504 580 31,000 -150 Level FlightAware ADS-B
Wed 05:29:17 PM 38.7060 -85.0040 37° Northeast 493 567 30,800 -1,200 Descending FlightAware ADS-B
Wed 05:30:02 PM 38.7840 -84.9300 36° Northeast 476 548 29,300 -2,188 Descending FlightAware ADS-B
Wed 05:30:42 PM 38.8540 -84.8620 37° Northeast 475 547 27,700 -1,482 Descending FlightAware ADS-B
Wed 05:31:27 PM 38.9270 -84.7900 37° Northeast 472 543 27,200 -2,400 Descending FlightAware ADS-B
Wed 05:32:07 PM 39.0000 -84.7170 38° Northeast 448 516 24,300 -2,560 Descending FlightAware ADS-B
Wed 05:32:42 PM 39.0450 -84.6510 49° Northeast 441 507 24,000 -225 Descending FlightAware ADS-B
Wed 05:33:27 PM 39.0920 -84.5650 55° Northeast 441 507 24,000  Level FlightAware ADS-B
Wed 05:34:07 PM 39.1320 -84.4920 55° Northeast 441 507 24,000  Level FlightAware ADS-B
Wed 05:34:57 PM 39.1810 -84.4000 55° Northeast 441 507 24,000  Level FlightAware ADS-B
Wed 05:35:37 PM 39.2210 -84.3270 55° Northeast 441 507 24,000  Level FlightAware ADS-B
Wed 05:36:17 PM 39.2610 -84.2530 55° Northeast 441 507 24,000 -2,160 Level FlightAware ADS-B
Wed 05:39:22 PM 39.4480 -83.7960 62° Northeast 416 479 15,900 -2,720 Descending FlightAware ADS-B
Wed 05:40:02 PM 39.4830 -83.7050 63° Northeast 419 482 13,800 -2,753 Descending FlightAware ADS-B
Wed 05:40:47 PM 39.5170 -83.6160 64° Northeast 412 474 12,000 -2,118 Descending FlightAware ADS-B
Wed 05:41:27 PM 39.5530 -83.5200 64° Northeast 387 445 10,800 -1,412 Descending FlightAware ADS-B
Wed 05:42:12 PM 39.5880 -83.4290 63° Northeast 355 409 10,000 -686 Descending FlightAware ADS-B
Wed 05:42:37 PM 39.6050 -83.3880 62° Northeast 355 409 10,000  Level FlightAware ADS-B
Wed 05:42:47 PM 39.6110 -83.3720 64° Northeast 355 409 10,000  Level FlightAware ADS-B
Wed 05:43:17 PM 39.6310 -83.3240 62° Northeast 355 409 10,000  Level FlightAware ADS-B
Wed 05:43:47 PM 39.6510 -83.2750 62° Northeast 355 409 10,000  Level FlightAware ADS-B
Wed 05:44:07 PM 39.6640 -83.2430 62° Northeast 355 409 10,000 -2,550 Level FlightAware ADS-B
Wed 05:45:07 PM 39.6606 -83.1517 62° Northeast 266 306 6,600 -2,331 Descending Indianapolis Center
Wed 05:46:08 PM 39.6967 -83.0828 56° Northeast 238 274 5,300 -1,554 Descending Indianapolis Center
Wed 05:46:59 PM 39.7367 -83.0319 44° Northeast 208 239 3,700 -1,768 Descending Indianapolis Center
Wed 05:48:00 PM 39.7714 -82.9842 47° Northeast 173 199 2,000 -1,266 Descending Indianapolis Center
Wed 05:49:07 PM 39.8011 -82.9469 44° Northeast 128 147 1,000 -896 Descending Indianapolis Center

Login

Don't have an account? Register now (free) for customized features, flight alerts, and more!